Talkeetna, Talkeetna Airport (PATK)

NameTalkeetna Airport
CityTalkeetna
CountryUnited States
ICAOPATK
IATATKA
Altitude109 m
CoordinatesGoogle Map
Live Air TrafficLiveATC.net
METARPATK 251953Z 00000KT 10SM SCT075 BKN090 12/06 A2995 RMK AO2 SLP143 T01220056 $
2019-08-25 19:53:00 Wind: North (0°) 0 m/s - Visibility: 16093.4 m - Temperature: 12 °C - Dew point: 6 °C - Humidity: 67% - Pressure: 1014.22 hPa

Sorry, no flights used the airport in this database.